createdAt,value
2023-04-28T00:01:41.252Z,11.27
2023-04-28T00:04:13.775Z,10.77
2023-04-28T00:06:44.756Z,9.53
2023-04-28T00:09:15.868Z,11.50
2023-04-28T00:11:47.827Z,11.97
2023-04-28T00:14:18.683Z,9.07
2023-04-28T00:16:49.655Z,8.83
2023-04-28T00:19:22.393Z,9.63
2023-04-28T00:21:53.041Z,9.67
2023-04-28T00:24:24.389Z,7.67
2023-04-28T00:26:54.859Z,7.73
2023-04-28T00:29:25.770Z,7.47
2023-04-28T00:31:58.786Z,8.40
2023-04-28T00:34:33.216Z,7.13
2023-04-28T00:37:06.337Z,6.50
2023-04-28T00:39:40.408Z,9.30
2023-04-28T00:42:11.285Z,5.87
2023-04-28T00:44:43.201Z,6.13
2023-04-28T00:47:16.574Z,5.93
2023-04-28T00:49:49.627Z,7.93
2023-04-28T00:52:21.041Z,9.40
2023-04-28T00:54:52.629Z,6.03
2023-04-28T00:57:26.153Z,5.43
2023-04-28T00:59:58.606Z,6.47
2023-04-28T01:02:32.964Z,7.27
2023-04-28T01:05:05.945Z,5.73
2023-04-28T01:07:37.229Z,4.80
2023-04-28T01:10:09.242Z,6.57
2023-04-28T01:12:42.827Z,5.83
2023-04-28T01:15:19.636Z,7.53
2023-04-28T01:17:50.558Z,5.70
2023-04-28T01:20:22.952Z,6.97
2023-04-28T01:22:53.446Z,6.27
2023-04-28T01:25:24.066Z,7.60
2023-04-28T01:27:54.559Z,6.73
2023-04-28T01:30:25.177Z,5.07
2023-04-28T01:32:55.676Z,5.33
2023-04-28T01:35:27.771Z,3.87
2023-04-28T01:38:00.929Z,5.10
2023-04-28T01:40:31.586Z,5.60
2023-04-28T01:43:03.345Z,5.50
2023-04-28T01:45:34.020Z,6.40
2023-04-28T01:48:06.559Z,5.17
2023-04-28T01:50:37.740Z,4.67
2023-04-28T01:53:11.242Z,5.73
2023-04-28T01:55:41.832Z,6.27
2023-04-28T01:58:12.286Z,5.23
2023-04-28T02:00:42.867Z,7.72
2023-04-28T02:03:15.718Z,4.60
2023-04-28T02:05:46.648Z,5.10
2023-04-28T02:08:17.698Z,7.57
2023-04-28T02:10:50.204Z,7.43
2023-04-28T02:13:20.739Z,5.17
2023-04-28T02:15:51.524Z,7.93
2023-04-28T02:18:22.118Z,6.37
2023-04-28T02:20:52.675Z,5.90
2023-04-28T02:23:23.240Z,6.33
2023-04-28T02:25:57.111Z,8.30
2023-04-28T02:28:27.623Z,7.17
2023-04-28T02:31:11.371Z,5.77
2023-04-28T02:33:44.886Z,6.03
2023-04-28T02:36:16.140Z,8.37
2023-04-28T02:38:46.695Z,5.00
2023-04-28T02:41:18.960Z,7.07
2023-04-28T02:43:49.550Z,6.17
2023-04-28T02:46:20.241Z,7.37
2023-04-28T02:48:51.104Z,8.10
2023-04-28T02:51:21.873Z,6.80
2023-04-28T02:53:53.009Z,7.43
2023-04-28T02:56:23.765Z,8.03
2023-04-28T02:58:54.802Z,6.60
2023-04-28T03:01:26.253Z,7.97
2023-04-28T03:03:57.094Z,8.20
2023-04-28T03:06:28.237Z,5.80
2023-04-28T03:08:58.813Z,9.70
2023-04-28T03:11:29.275Z,10.43
2023-04-28T03:14:01.649Z,7.83
2023-04-28T03:16:33.284Z,6.63
2023-04-28T03:19:04.057Z,6.27
2023-04-28T03:21:39.225Z,6.20
2023-04-28T03:24:09.870Z,7.03
2023-04-28T03:26:40.892Z,7.27
2023-04-28T03:29:11.671Z,6.13
2023-04-28T03:31:43.806Z,8.37
2023-04-28T03:34:14.538Z,8.73
2023-04-28T03:36:45.421Z,6.47
2023-04-28T03:39:15.969Z,6.77
2023-04-28T03:41:50.372Z,5.67
2023-04-28T03:44:23.535Z,8.30
2023-04-28T03:46:55.664Z,5.90
2023-04-28T03:49:27.628Z,7.87
2023-04-28T03:51:59.082Z,6.83
2023-04-28T03:54:30.774Z,7.67
2023-04-28T03:57:04.462Z,6.60
2023-04-28T03:59:37.586Z,6.93
2023-04-28T04:02:11.308Z,6.40
2023-04-28T04:04:46.377Z,6.13
2023-04-28T04:07:18.077Z,8.70
2023-04-28T04:09:50.063Z,6.33
2023-04-28T04:12:22.397Z,7.63
2023-04-28T04:14:54.168Z,9.00
2023-04-28T04:17:24.964Z,6.17
2023-04-28T04:19:56.964Z,6.63
2023-04-28T04:22:28.697Z,7.83
2023-04-28T04:25:00.963Z,7.73
2023-04-28T04:27:32.162Z,7.57
2023-04-28T04:30:02.720Z,5.80
2023-04-28T04:32:33.629Z,6.33
2023-04-28T04:35:04.466Z,6.30
2023-04-28T04:37:35.502Z,6.37
2023-04-28T04:40:08.965Z,7.93
2023-04-28T04:42:40.357Z,10.83
2023-04-28T04:45:12.356Z,7.20
2023-04-28T04:47:43.632Z,7.03
2023-04-28T04:50:16.086Z,6.93
2023-04-28T04:52:48.175Z,9.63
2023-04-28T04:55:19.150Z,8.17
2023-04-28T04:57:50.750Z,9.03
2023-04-28T05:00:23.349Z,8.27
2023-04-28T05:02:55.526Z,7.23
2023-04-28T05:05:28.180Z,9.60
2023-04-28T05:07:58.917Z,5.20
2023-04-28T05:10:32.116Z,7.55
2023-04-28T05:13:09.209Z,9.95
2023-04-28T05:15:42.674Z,7.22
2023-04-28T05:18:14.991Z,5.20
2023-04-28T05:20:46.645Z,8.18
2023-04-28T05:23:17.576Z,7.42
2023-04-28T05:25:48.039Z,6.10
2023-04-28T05:28:23.424Z,9.70
2023-04-28T05:30:55.967Z,8.95
2023-04-28T05:33:27.966Z,6.75
2023-04-28T05:36:00.136Z,6.80
2023-04-28T05:38:34.363Z,7.97
2023-04-28T05:41:04.997Z,9.03
2023-04-28T05:43:36.305Z,9.15
2023-04-28T05:46:18.248Z,10.75
2023-04-28T05:48:41.618Z,8.38
2023-04-28T05:51:13.770Z,6.65
2023-04-28T05:53:46.527Z,7.30
2023-04-28T05:56:20.466Z,9.53
2023-04-28T05:58:51.752Z,9.43
2023-04-28T06:01:24.617Z,6.87
2023-04-28T06:03:58.242Z,8.60
2023-04-28T06:06:30.329Z,9.35
2023-04-28T06:09:04.271Z,6.37
2023-04-28T06:11:36.624Z,5.92
2023-04-28T06:14:08.499Z,6.97
2023-04-28T06:16:40.849Z,8.25
2023-04-28T06:19:11.532Z,6.10
2023-04-28T06:21:42.246Z,5.37
2023-04-28T06:24:13.402Z,6.80
2023-04-28T06:26:45.486Z,7.92
2023-04-28T06:29:18.759Z,8.45
2023-04-28T06:31:51.080Z,8.25
2023-04-28T06:34:21.754Z,11.35
2023-04-28T06:36:53.524Z,7.30
2023-04-28T06:39:26.612Z,6.90
2023-04-28T06:41:57.750Z,11.43
2023-04-28T06:44:32.508Z,7.87
2023-04-28T06:47:04.515Z,9.03
2023-04-28T06:49:37.501Z,10.18
2023-04-28T06:52:08.474Z,6.90
2023-04-28T06:54:40.575Z,9.28
2023-04-28T06:57:11.704Z,5.58
2023-04-28T06:59:44.131Z,6.90
2023-04-28T07:02:16.554Z,7.70
2023-04-28T07:04:47.975Z,9.10
2023-04-28T07:07:20.046Z,9.88
2023-04-28T07:09:53.488Z,13.72
2023-04-28T07:12:24.499Z,8.28
2023-04-28T07:14:56.033Z,9.10
2023-04-28T07:17:26.934Z,8.68
2023-04-28T07:19:57.659Z,9.20
2023-04-28T07:22:28.318Z,9.58
2023-04-28T07:24:58.843Z,4.95
2023-04-28T07:27:29.453Z,10.78
2023-04-28T07:30:01.904Z,7.12
2023-04-28T07:32:34.891Z,5.50
2023-04-28T07:35:07.446Z,5.73
2023-04-28T07:37:39.681Z,7.22
2023-04-28T07:40:10.813Z,5.55
2023-04-28T07:42:41.540Z,8.85
2023-04-28T07:45:17.735Z,8.08
2023-04-28T07:47:48.181Z,6.65
2023-04-28T07:50:20.960Z,9.90
2023-04-28T07:52:51.956Z,6.55
2023-04-28T07:55:22.641Z,7.00
2023-04-28T07:57:54.896Z,10.08
2023-04-28T08:00:26.424Z,7.70
2023-04-28T08:02:58.552Z,5.72
2023-04-28T08:05:29.738Z,8.48
2023-04-28T08:08:02.295Z,9.23
2023-04-28T08:10:35.770Z,8.28
2023-04-28T08:13:06.631Z,8.10
2023-04-28T08:15:37.237Z,6.90
2023-04-28T08:18:09.386Z,7.45
2023-04-28T08:20:39.880Z,6.03
2023-04-28T08:23:11.730Z,8.43
2023-04-28T08:25:43.982Z,7.15
2023-04-28T08:28:33.328Z,6.10
2023-04-28T08:31:05.481Z,5.90
2023-04-28T08:33:37.184Z,8.60
2023-04-28T08:36:12.008Z,6.60
2023-04-28T08:38:43.730Z,6.37
2023-04-28T08:41:16.392Z,7.45
2023-04-28T08:43:47.047Z,5.90
2023-04-28T08:46:19.559Z,7.10
2023-04-28T08:48:55.397Z,6.53
2023-04-28T08:51:32.662Z,14.98
2023-04-28T08:54:24.716Z,7.78
2023-04-28T08:56:39.479Z,7.00
2023-04-28T08:59:09.649Z,7.92
2023-04-28T09:01:40.404Z,7.15
2023-04-28T09:04:14.218Z,6.83
2023-04-28T09:06:45.417Z,12.40
2023-04-28T09:09:25.303Z,7.65
2023-04-28T09:12:01.237Z,7.87
2023-04-28T09:14:35.160Z,7.83
2023-04-28T09:17:12.845Z,12.65
2023-04-28T09:19:44.330Z,6.92
2023-04-28T09:22:26.260Z,7.58
2023-04-28T09:24:49.014Z,10.38
2023-04-28T09:27:22.689Z,7.40
2023-04-28T09:29:54.965Z,6.95
2023-04-28T09:32:28.175Z,9.18
2023-04-28T09:34:59.756Z,12.43
2023-04-28T09:37:31.250Z,10.48
2023-04-28T09:40:09.956Z,10.53
2023-04-28T09:42:42.000Z,8.53
2023-04-28T09:45:14.444Z,10.63
2023-04-28T09:47:48.143Z,9.85
2023-04-28T09:50:19.181Z,9.20
2023-04-28T09:52:59.152Z,10.70
2023-04-28T09:55:31.691Z,9.40
2023-04-28T09:58:06.298Z,7.70
2023-04-28T10:00:38.902Z,10.70
2023-04-28T10:03:11.758Z,7.97
2023-04-28T10:05:43.062Z,8.80
2023-04-28T10:08:15.255Z,7.03
2023-04-28T10:10:49.060Z,8.63
2023-04-28T10:13:20.386Z,9.68
2023-04-28T10:15:54.191Z,10.03
2023-04-28T10:18:25.707Z,7.70
2023-04-28T10:21:03.093Z,8.60
2023-04-28T10:23:49.358Z,9.38
2023-04-28T10:26:23.709Z,9.08
2023-04-28T10:28:55.568Z,7.92
2023-04-28T10:31:26.328Z,8.38
2023-04-28T10:34:02.506Z,9.18
2023-04-28T10:36:54.910Z,7.15
2023-04-28T10:39:25.550Z,8.00
2023-04-28T10:41:56.979Z,8.75
2023-04-28T10:44:33.458Z,8.45
2023-04-28T10:47:06.657Z,8.15
2023-04-28T10:50:01.344Z,7.60
2023-04-28T10:52:40.886Z,8.90
2023-04-28T10:55:39.895Z,7.80
2023-04-28T10:58:22.754Z,9.00
2023-04-28T11:00:56.563Z,5.65
2023-04-28T11:03:53.106Z,5.80
2023-04-28T11:06:33.094Z,7.17
2023-04-28T11:09:08.289Z,8.25
2023-04-28T11:11:41.023Z,10.23
2023-04-28T11:14:24.523Z,8.85
2023-04-28T11:16:58.732Z,6.28
2023-04-28T11:19:38.660Z,7.65
2023-04-28T11:22:17.386Z,6.97
2023-04-28T11:25:04.533Z,7.72
2023-04-28T11:27:36.111Z,8.70
2023-04-28T11:30:10.137Z,10.00
2023-04-28T11:32:43.497Z,7.60
2023-04-28T11:35:14.153Z,7.53
2023-04-28T11:37:44.891Z,7.75
2023-04-28T11:40:16.673Z,9.85
2023-04-28T11:42:50.370Z,9.65
2023-04-28T11:45:22.007Z,9.70
2023-04-28T11:47:54.098Z,7.12
2023-04-28T11:50:38.499Z,9.30
2023-04-28T11:53:12.946Z,7.62
2023-04-28T11:55:44.117Z,8.90
2023-04-28T11:58:27.853Z,10.40
2023-04-28T12:01:11.965Z,10.05
2023-04-28T12:03:49.181Z,7.85
2023-04-28T12:06:20.401Z,7.90
2023-04-28T12:08:52.663Z,9.43
2023-04-28T12:11:24.919Z,9.75
2023-04-28T12:14:06.719Z,8.30
2023-04-28T12:16:45.107Z,9.20
2023-04-28T12:19:17.653Z,9.23
2023-04-28T12:22:07.597Z,8.18
2023-04-28T12:24:39.601Z,8.25
2023-04-28T12:27:22.703Z,9.10
2023-04-28T12:29:55.724Z,7.62
2023-04-28T12:32:40.703Z,9.10
2023-04-28T12:35:12.564Z,11.50
2023-04-28T12:37:46.928Z,8.18
2023-04-28T12:40:17.456Z,8.90
2023-04-28T12:42:48.006Z,10.43
2023-04-28T12:45:21.273Z,7.72
2023-04-28T12:50:43.527Z,8.73
2023-04-28T12:53:14.270Z,8.73
2023-04-28T12:55:46.767Z,11.35
2023-04-28T12:58:19.430Z,8.28
2023-04-28T13:00:50.780Z,10.05
2023-04-28T13:03:21.647Z,10.72
2023-04-28T13:05:53.421Z,8.43
2023-04-28T13:08:24.005Z,9.28
2023-04-28T13:10:55.720Z,9.08
2023-04-28T13:13:26.783Z,8.28
2023-04-28T13:15:58.976Z,10.25
2023-04-28T13:18:31.446Z,8.58
2023-04-28T13:21:02.010Z,6.83
2023-04-28T13:23:32.397Z,8.33
2023-04-28T13:26:04.135Z,8.78
2023-04-28T13:28:34.691Z,8.05
2023-04-28T13:31:05.470Z,11.05
2023-04-28T13:33:36.045Z,8.95
2023-04-28T13:36:08.417Z,8.03
2023-04-28T13:38:38.913Z,9.28
2023-04-28T13:41:12.454Z,7.78
2023-04-28T13:43:44.717Z,9.05
2023-04-28T13:46:15.927Z,8.90
2023-04-28T13:48:46.538Z,10.72
2023-04-28T13:51:17.155Z,9.08
2023-04-28T13:53:47.698Z,7.72
2023-04-28T13:56:19.634Z,9.15
2023-04-28T13:58:50.512Z,8.25
2023-04-28T14:01:21.346Z,7.58
2023-04-28T14:03:53.907Z,11.15
2023-04-28T14:06:24.668Z,9.78
2023-04-28T14:08:55.162Z,6.78
2023-04-28T14:11:27.004Z,10.03
2023-04-28T14:14:00.038Z,10.55
2023-04-28T14:16:30.740Z,9.95
2023-04-28T14:19:01.654Z,9.20
2023-04-28T14:21:33.045Z,11.88
2023-04-28T14:24:03.576Z,7.67
2023-04-28T14:26:34.553Z,12.65
2023-04-28T14:29:06.676Z,9.63
2023-04-28T14:31:38.297Z,8.90
2023-04-28T14:34:09.722Z,10.98
2023-04-28T14:36:42.383Z,8.58
2023-04-28T14:39:12.981Z,9.50
2023-04-28T14:41:43.483Z,7.12
2023-04-28T14:44:13.933Z,9.90
2023-04-28T14:46:44.620Z,8.03
2023-04-28T14:49:16.752Z,9.58
2023-04-28T14:51:49.754Z,8.85
2023-04-28T14:54:21.875Z,8.50
2023-04-28T14:56:52.422Z,8.30
2023-04-28T14:59:25.172Z,8.45
2023-04-28T15:01:56.543Z,11.28
2023-04-28T15:04:29.194Z,9.75
2023-04-28T15:07:01.067Z,7.72
2023-04-28T15:09:31.924Z,7.90
2023-04-28T15:12:04.469Z,9.65
2023-04-28T15:14:36.560Z,7.03
2023-04-28T15:17:07.472Z,8.73
2023-04-28T15:19:38.059Z,10.50
2023-04-28T15:22:08.705Z,8.60
2023-04-28T15:24:39.231Z,11.57
2023-04-28T15:27:10.104Z,9.53
2023-04-28T15:29:40.747Z,11.03
2023-04-28T15:32:11.674Z,8.65
2023-04-28T15:34:42.519Z,9.18
2023-04-28T15:37:35.644Z,10.63
2023-04-28T15:40:08.732Z,9.90
2023-04-28T15:42:44.101Z,9.85
2023-04-28T15:45:18.818Z,7.92
2023-04-28T15:47:54.741Z,9.95
2023-04-28T15:50:26.398Z,11.28
2023-04-28T15:53:00.008Z,9.15
2023-04-28T15:55:34.592Z,9.33
2023-04-28T15:58:07.307Z,12.33
2023-04-28T16:00:37.942Z,10.43
2023-04-28T16:03:09.825Z,13.98
2023-04-28T16:05:40.626Z,9.90
2023-04-28T16:08:11.738Z,10.90
2023-04-28T16:10:45.500Z,9.15
2023-04-28T16:13:15.316Z,9.03
2023-04-28T16:15:50.741Z,11.03
2023-04-28T16:18:21.853Z,10.32
2023-04-28T16:20:56.028Z,9.05
2023-04-28T16:23:26.678Z,11.88
2023-04-28T16:25:57.857Z,10.00
2023-04-28T16:28:28.404Z,12.50
2023-04-28T16:30:59.494Z,11.65
2023-04-28T16:33:29.970Z,12.20
2023-04-28T16:36:01.333Z,10.15
2023-04-28T16:38:32.202Z,10.25
2023-04-28T16:41:02.730Z,11.20
2023-04-28T16:43:33.357Z,9.63
2023-04-28T16:46:04.406Z,9.45
2023-04-28T16:48:35.696Z,12.78
2023-04-28T16:51:09.256Z,9.75
2023-04-28T16:53:39.945Z,11.40
2023-04-28T16:56:11.249Z,11.88
2023-04-28T16:58:42.077Z,10.48
2023-04-28T17:01:13.559Z,11.63
2023-04-28T17:03:44.259Z,11.28
2023-04-28T17:06:16.970Z,12.10
2023-04-28T17:08:49.208Z,10.72
2023-04-28T17:11:25.554Z,11.80
2023-04-28T17:13:56.703Z,10.68
2023-04-28T17:16:31.857Z,11.75
2023-04-28T17:19:05.416Z,11.15
2023-04-28T17:21:36.261Z,10.78
2023-04-28T17:24:08.970Z,12.28
2023-04-28T17:26:42.093Z,11.68
2023-04-28T17:29:13.738Z,11.95
2023-04-28T17:31:46.912Z,12.95
2023-04-28T17:34:19.650Z,14.93
2023-04-28T17:36:50.576Z,14.13
2023-04-28T17:39:21.488Z,14.93
2023-04-28T17:41:52.166Z,13.08
2023-04-28T17:44:24.208Z,14.70
2023-04-28T17:46:56.410Z,13.28
2023-04-28T17:49:27.594Z,13.55
2023-04-28T17:51:59.320Z,13.83
2023-04-28T17:54:31.469Z,13.58
2023-04-28T17:57:03.898Z,14.30
2023-04-28T17:59:34.927Z,15.08
2023-04-28T18:02:05.734Z,13.53
2023-04-28T18:04:39.034Z,14.28
2023-04-28T18:07:09.642Z,12.70
2023-04-28T18:09:40.508Z,16.23
2023-04-28T18:12:11.149Z,14.73
2023-04-28T18:14:43.514Z,13.50
2023-04-28T18:17:13.964Z,12.20
2023-04-28T18:19:50.224Z,15.83
2023-04-28T18:22:22.651Z,13.50
2023-04-28T18:24:55.341Z,14.23
2023-04-28T18:27:27.707Z,13.20
2023-04-28T18:29:59.926Z,14.07
2023-04-28T18:32:33.816Z,12.65
2023-04-28T18:35:06.053Z,14.95
2023-04-28T18:37:37.723Z,11.97
2023-04-28T18:40:15.448Z,14.25
2023-04-28T18:42:48.234Z,14.75
2023-04-28T18:45:22.090Z,16.87
2023-04-28T18:47:52.861Z,14.23
2023-04-28T18:50:25.575Z,13.20
2023-04-28T18:52:56.517Z,12.10
2023-04-28T18:55:27.856Z,11.65
2023-04-28T18:57:58.713Z,12.33
2023-04-28T19:00:29.493Z,11.75
2023-04-28T19:03:00.262Z,11.60
2023-04-28T19:05:34.051Z,12.03
2023-04-28T19:08:09.308Z,14.07
2023-04-28T19:10:40.322Z,12.15
2023-04-28T19:13:11.105Z,13.72
2023-04-28T19:15:44.536Z,13.48
2023-04-28T19:18:15.920Z,11.20
2023-04-28T19:20:46.769Z,12.05
2023-04-28T19:23:18.904Z,13.55
2023-04-28T19:25:49.645Z,12.10
2023-04-28T19:28:20.155Z,13.43
2023-04-28T19:30:53.457Z,13.72
2023-04-28T19:33:27.798Z,15.10
2023-04-28T19:35:58.481Z,13.60
2023-04-28T19:38:28.978Z,12.43
2023-04-28T19:41:02.443Z,13.60
2023-04-28T19:43:33.071Z,12.80
2023-04-28T19:46:03.549Z,14.65
2023-04-28T19:48:34.588Z,13.00
2023-04-28T19:51:05.146Z,13.85
2023-04-28T19:53:38.642Z,13.32
2023-04-28T19:56:10.191Z,12.63
2023-04-28T19:58:42.536Z,12.40
2023-04-28T20:01:14.850Z,13.85
2023-04-28T20:03:47.938Z,12.10
2023-04-28T20:06:18.011Z,12.45
2023-04-28T20:08:48.653Z,10.80
2023-04-28T20:11:20.711Z,12.70
2023-04-28T20:13:52.503Z,12.33
2023-04-28T20:16:28.838Z,10.68
2023-04-28T20:18:59.402Z,10.38
2023-04-28T20:21:33.458Z,10.58
2023-04-28T20:24:03.676Z,12.28
2023-04-28T20:26:34.560Z,13.88
2023-04-28T20:29:08.268Z,10.80
2023-04-28T20:31:38.264Z,12.40
2023-04-28T20:34:09.675Z,11.03
2023-04-28T20:36:42.820Z,12.40
2023-04-28T20:39:13.428Z,10.45
2023-04-28T20:41:44.189Z,13.08
2023-04-28T20:44:15.197Z,10.60
2023-04-28T20:46:46.853Z,11.00
2023-04-28T20:49:17.778Z,11.33
2023-04-28T20:51:48.343Z,10.75
2023-04-28T20:54:18.880Z,12.55
2023-04-28T20:56:50.630Z,10.78
2023-04-28T20:59:21.231Z,11.93
2023-04-28T21:01:51.960Z,11.12
2023-04-28T21:04:23.361Z,11.60
2023-04-28T21:06:55.284Z,11.05
2023-04-28T21:09:27.972Z,12.28
2023-04-28T21:11:58.453Z,11.30
2023-04-28T21:14:29.118Z,11.53
2023-04-28T21:17:02.269Z,13.08
2023-04-28T21:19:33.438Z,10.70
2023-04-28T21:22:04.291Z,10.72
2023-04-28T21:24:35.033Z,11.25
2023-04-28T21:27:05.914Z,10.25
2023-04-28T21:29:36.486Z,10.18
2023-04-28T21:32:08.595Z,10.30
2023-04-28T21:34:40.350Z,11.00
2023-04-28T21:37:12.748Z,9.30
2023-04-28T21:39:45.001Z,10.32
2023-04-28T21:42:17.059Z,11.45
2023-04-28T21:44:47.989Z,10.50
2023-04-28T21:47:18.689Z,9.48
2023-04-28T21:49:49.520Z,11.00
2023-04-28T21:52:20.376Z,9.73
2023-04-28T21:54:51.098Z,10.45
2023-04-28T21:57:21.699Z,10.48
2023-04-28T21:59:52.383Z,11.50
2023-04-28T22:02:25.824Z,10.55
2023-04-28T22:04:57.917Z,10.43
2023-04-28T22:07:30.031Z,11.45
2023-04-28T22:10:00.681Z,10.15
2023-04-28T22:12:31.143Z,10.60
2023-04-28T22:15:01.796Z,10.05
2023-04-28T22:17:32.567Z,10.10
2023-04-28T22:20:28.466Z,10.75
2023-04-28T22:23:09.785Z,10.58
2023-04-28T22:25:47.753Z,9.95
2023-04-28T22:28:19.717Z,10.00
2023-04-28T22:30:58.256Z,9.98
2023-04-28T22:33:33.714Z,10.18
2023-04-28T22:36:07.136Z,9.25
2023-04-28T22:38:43.987Z,11.03
2023-04-28T22:41:15.930Z,10.13
2023-04-28T22:43:49.030Z,10.53
2023-04-28T22:46:22.966Z,10.38
2023-04-28T22:49:08.594Z,10.45
2023-04-28T22:51:50.763Z,11.17
2023-04-28T22:54:26.232Z,10.75
2023-04-28T22:56:59.190Z,10.58
2023-04-28T22:59:30.949Z,10.28
2023-04-28T23:02:05.529Z,10.43
2023-04-28T23:04:37.013Z,10.13
2023-04-28T23:07:10.582Z,10.63
2023-04-28T23:09:42.054Z,9.95
2023-04-28T23:12:12.535Z,10.08
2023-04-28T23:14:43.198Z,10.65
2023-04-28T23:17:15.115Z,10.43
2023-04-28T23:19:45.726Z,10.23
2023-04-28T23:22:17.766Z,11.12
2023-04-28T23:24:48.384Z,9.85
2023-04-28T23:27:18.880Z,10.75
2023-04-28T23:29:49.589Z,9.45
2023-04-28T23:32:20.379Z,9.45
2023-04-28T23:34:51.024Z,9.78
2023-04-28T23:37:21.510Z,9.78
2023-04-28T23:39:52.119Z,8.88
2023-04-28T23:42:24.056Z,9.23
2023-04-28T23:44:54.595Z,10.20
2023-04-28T23:47:25.285Z,9.68
2023-04-28T23:49:56.112Z,10.95
2023-04-28T23:52:27.089Z,9.20
2023-04-28T23:54:57.515Z,8.70
2023-04-28T23:57:29.989Z,8.88
